createdAt,value
2022-12-13T00:01:48.133Z,19.23
2022-12-13T00:04:16.396Z,24.73
2022-12-13T00:06:46.099Z,24.97
2022-12-13T00:09:15.741Z,21.77
2022-12-13T00:11:44.194Z,24.53
2022-12-13T00:14:14.259Z,24.90
2022-12-13T00:16:46.588Z,20.73
2022-12-13T00:19:15.227Z,27.40
2022-12-13T00:21:43.353Z,22.57
2022-12-13T00:24:14.774Z,26.80
2022-12-13T00:26:43.361Z,29.77
2022-12-13T00:29:12.963Z,22.40
2022-12-13T00:32:00.546Z,28.93
2022-12-13T00:34:29.871Z,26.57
2022-12-13T00:37:00.218Z,24.00
2022-12-13T00:39:33.929Z,22.27
2022-12-13T00:42:02.104Z,24.67
2022-12-13T00:44:31.324Z,25.10
2022-12-13T00:46:59.503Z,21.40
2022-12-13T00:49:27.478Z,17.20
2022-12-13T00:51:55.618Z,26.00
2022-12-13T00:54:24.307Z,24.63
2022-12-13T00:56:53.659Z,21.50
2022-12-13T00:59:23.041Z,23.23
2022-12-13T01:01:51.484Z,21.47
2022-12-13T01:04:20.143Z,22.00
2022-12-13T01:06:51.507Z,27.73
2022-12-13T01:09:22.279Z,18.27
2022-12-13T01:11:51.673Z,24.40
2022-12-13T01:14:21.287Z,31.00
2022-12-13T01:16:49.508Z,22.13
2022-12-13T01:19:17.731Z,22.07
2022-12-13T01:21:45.741Z,21.57
2022-12-13T01:24:14.071Z,20.87
2022-12-13T01:26:42.159Z,16.67
2022-12-13T01:29:11.549Z,20.00
2022-12-13T01:31:41.926Z,21.90
2022-12-13T01:34:11.517Z,20.37
2022-12-13T01:36:40.466Z,21.33
2022-12-13T01:39:14.629Z,26.40
2022-12-13T01:41:45.011Z,36.37
2022-12-13T01:44:46.473Z,23.50
2022-12-13T01:47:18.463Z,27.03
2022-12-13T01:49:46.773Z,25.83
2022-12-13T01:52:16.439Z,26.43
2022-12-13T01:54:49.999Z,23.00
2022-12-13T01:57:20.872Z,26.73
2022-12-13T01:59:50.285Z,24.20
2022-12-13T02:02:20.047Z,26.70
2022-12-13T02:04:56.365Z,22.93
2022-12-13T02:07:28.993Z,30.57
2022-12-13T02:09:59.763Z,19.40
2022-12-13T02:12:30.770Z,24.13
2022-12-13T02:15:12.155Z,24.50
2022-12-13T02:18:03.323Z,19.80
2022-12-13T02:21:03.140Z,29.67
2022-12-13T02:24:20.733Z,21.77
2022-12-13T02:27:02.080Z,17.23
2022-12-13T02:30:02.975Z,21.00
2022-12-13T02:32:38.993Z,19.50
2022-12-13T02:35:12.184Z,16.87
2022-12-13T02:37:51.198Z,18.13
2022-12-13T02:40:24.788Z,17.23
2022-12-13T02:43:01.497Z,19.23
2022-12-13T02:45:33.751Z,21.97
2022-12-13T02:48:06.081Z,24.60
2022-12-13T02:50:35.225Z,17.80
2022-12-13T02:53:05.599Z,18.40
2022-12-13T02:55:35.922Z,19.47
2022-12-13T02:58:03.901Z,20.77
2022-12-13T03:00:40.138Z,19.70
2022-12-13T03:03:22.446Z,21.27
2022-12-13T03:06:33.546Z,18.27
2022-12-13T03:09:17.943Z,19.77
2022-12-13T03:12:23.507Z,20.17
2022-12-13T03:14:59.671Z,16.87
2022-12-13T03:17:29.840Z,17.87
2022-12-13T03:19:59.823Z,16.70
2022-12-13T03:22:28.039Z,21.57
2022-12-13T03:24:56.674Z,19.83
2022-12-13T03:27:24.772Z,14.13
2022-12-13T03:30:30.140Z,24.80
2022-12-13T03:32:58.435Z,19.17
2022-12-13T03:35:34.521Z,15.30
2022-12-13T03:38:22.244Z,20.03
2022-12-13T03:40:54.481Z,19.97
2022-12-13T03:43:23.456Z,20.67
2022-12-13T03:45:52.546Z,23.57
2022-12-13T03:48:22.620Z,20.77
2022-12-13T03:50:55.046Z,21.13
2022-12-13T03:53:34.141Z,23.00
2022-12-13T03:56:03.197Z,19.27
2022-12-13T03:58:36.473Z,20.57
2022-12-13T04:01:06.757Z,19.33
2022-12-13T04:03:35.157Z,18.40
2022-12-13T04:06:05.782Z,17.60
2022-12-13T04:08:34.578Z,23.60
2022-12-13T04:11:24.735Z,17.13
2022-12-13T04:13:51.835Z,17.70
2022-12-13T04:16:20.436Z,16.50
2022-12-13T04:18:49.129Z,19.50
2022-12-13T04:21:18.695Z,21.40
2022-12-13T04:23:46.939Z,21.83
2022-12-13T04:26:15.276Z,18.60
2022-12-13T04:28:54.490Z,15.57
2022-12-13T04:31:23.296Z,17.33
2022-12-13T04:33:51.776Z,17.27
2022-12-13T04:36:30.855Z,24.40
2022-12-13T04:39:00.986Z,13.17
2022-12-13T04:41:34.070Z,18.77
2022-12-13T04:44:03.174Z,19.50
2022-12-13T04:46:31.365Z,20.90
2022-12-13T04:48:59.366Z,17.00
2022-12-13T04:51:28.998Z,19.37
2022-12-13T04:53:57.041Z,19.10
2022-12-13T04:56:44.968Z,19.70
2022-12-13T04:59:13.075Z,20.23
2022-12-13T05:01:41.101Z,20.53
2022-12-13T05:04:09.301Z,22.50
2022-12-13T05:06:39.634Z,19.87
2022-12-13T05:09:11.532Z,19.80
2022-12-13T05:11:45.333Z,25.70
2022-12-13T05:14:13.912Z,29.70
2022-12-13T05:16:42.163Z,28.53
2022-12-13T05:19:10.279Z,24.03
2022-12-13T05:21:39.609Z,32.03
2022-12-13T05:24:08.705Z,29.93
2022-12-13T05:26:36.801Z,30.20
2022-12-13T05:29:05.029Z,33.33
2022-12-13T05:31:33.142Z,29.47
2022-12-13T05:34:01.634Z,31.87
2022-12-13T05:36:29.778Z,27.60
2022-12-13T05:38:59.161Z,37.73
2022-12-13T05:41:30.443Z,32.53
2022-12-13T05:43:58.574Z,27.93
2022-12-13T05:46:26.821Z,36.17
2022-12-13T05:49:00.849Z,26.27
2022-12-13T05:51:28.916Z,30.87
2022-12-13T05:53:58.399Z,33.50
2022-12-13T05:56:26.514Z,25.13
2022-12-13T05:58:54.934Z,28.80
2022-12-13T06:01:28.862Z,25.27
2022-12-13T06:03:57.048Z,16.60
2022-12-13T06:06:25.424Z,22.20
2022-12-13T06:08:53.478Z,22.13
2022-12-13T06:11:31.635Z,20.57
2022-12-13T06:14:01.138Z,23.53
2022-12-13T06:19:03.715Z,16.43
2022-12-13T06:21:41.769Z,18.27
2022-12-13T06:24:17.776Z,20.37
2022-12-13T06:26:47.630Z,15.63
2022-12-13T06:29:24.111Z,23.93
2022-12-13T06:32:02.357Z,16.70
2022-12-13T06:34:32.816Z,20.23
2022-12-13T06:37:01.423Z,18.80
2022-12-13T06:39:32.666Z,14.00
2022-12-13T06:42:03.323Z,14.73
2022-12-13T06:44:31.704Z,17.27
2022-12-13T06:47:12.566Z,19.40
2022-12-13T06:49:44.216Z,14.27
2022-12-13T06:52:14.195Z,23.73
2022-12-13T06:54:42.710Z,18.23
2022-12-13T06:57:12.870Z,11.67
2022-12-13T06:59:41.647Z,14.03
2022-12-13T07:02:24.864Z,16.50
2022-12-13T07:04:55.164Z,16.80
2022-12-13T07:07:24.630Z,16.83
2022-12-13T07:09:53.081Z,15.90
2022-12-13T07:12:22.733Z,13.37
2022-12-13T07:14:53.417Z,12.40
2022-12-13T07:17:31.843Z,15.47
2022-12-13T07:20:01.705Z,16.67
2022-12-13T07:22:34.642Z,15.30
2022-12-13T07:25:04.897Z,17.80
2022-12-13T07:27:34.699Z,16.43
2022-12-13T07:30:03.644Z,15.90
2022-12-13T07:32:31.703Z,14.60
2022-12-13T07:34:59.782Z,17.63
2022-12-13T07:37:30.628Z,16.50
2022-12-13T07:40:04.051Z,14.17
2022-12-13T07:42:34.254Z,13.47
2022-12-13T07:45:02.224Z,14.13
2022-12-13T07:47:31.054Z,16.07
2022-12-13T07:49:59.251Z,19.87
2022-12-13T07:52:27.609Z,16.20
2022-12-13T07:54:55.690Z,15.67
2022-12-13T07:57:23.754Z,18.53
2022-12-13T07:59:53.076Z,13.20
2022-12-13T08:02:21.303Z,19.73
2022-12-13T08:04:54.692Z,15.10
2022-12-13T08:07:23.082Z,23.40
2022-12-13T08:09:52.923Z,17.17
2022-12-13T08:12:22.518Z,18.17
2022-12-13T08:14:53.150Z,17.03
2022-12-13T08:17:22.064Z,18.23
2022-12-13T08:19:50.437Z,20.60
2022-12-13T08:22:24.112Z,22.13
2022-12-13T08:24:52.756Z,16.03
2022-12-13T08:27:20.700Z,24.70
2022-12-13T08:29:49.027Z,19.37
2022-12-13T08:32:18.439Z,19.97
2022-12-13T08:34:46.669Z,31.70
2022-12-13T08:37:15.308Z,24.13
2022-12-13T08:39:44.548Z,23.77
2022-12-13T08:42:18.302Z,20.87
2022-12-13T08:44:49.945Z,22.73
2022-12-13T08:47:24.874Z,15.53
2022-12-13T08:49:55.012Z,20.63
2022-12-13T08:52:24.025Z,17.73
2022-12-13T08:54:52.447Z,17.47
2022-12-13T08:57:23.295Z,20.50
2022-12-13T08:59:51.251Z,20.63
2022-12-13T09:02:20.928Z,20.47
2022-12-13T09:04:49.000Z,14.97
2022-12-13T09:07:16.982Z,16.97
2022-12-13T09:09:45.032Z,17.67
2022-12-13T09:12:30.543Z,18.10
2022-12-13T09:15:01.579Z,24.47
2022-12-13T09:17:36.676Z,15.20
2022-12-13T09:20:10.284Z,16.60
2022-12-13T09:23:01.729Z,25.70
2022-12-13T09:25:37.125Z,19.63
2022-12-13T09:28:07.502Z,20.67
2022-12-13T09:30:35.525Z,21.23
2022-12-13T09:33:28.590Z,16.30
2022-12-13T09:35:54.733Z,16.10
2022-12-13T09:38:22.797Z,16.83
2022-12-13T09:40:59.051Z,15.23
2022-12-13T09:43:32.540Z,14.80
2022-12-13T09:46:13.405Z,19.23
2022-12-13T09:49:02.005Z,25.97
2022-12-13T09:51:41.544Z,23.23
2022-12-13T09:54:19.646Z,23.17
2022-12-13T09:56:50.872Z,19.00
2022-12-13T09:59:22.490Z,20.50
2022-12-13T10:01:50.577Z,17.23
2022-12-13T10:04:20.535Z,20.60
2022-12-13T10:06:53.574Z,20.60
2022-12-13T10:09:21.776Z,20.93
2022-12-13T10:11:51.724Z,16.23
2022-12-13T10:14:24.295Z,25.10
2022-12-13T10:16:57.759Z,20.90
2022-12-13T10:19:34.754Z,18.57
2022-12-13T10:22:05.797Z,18.40
2022-12-13T10:24:50.944Z,16.13
2022-12-13T10:27:21.615Z,13.77
2022-12-13T10:30:06.531Z,23.27
2022-12-13T10:32:43.517Z,16.70
2022-12-13T10:35:24.764Z,15.13
2022-12-13T10:37:53.437Z,22.43
2022-12-13T10:40:33.273Z,14.40
2022-12-13T10:43:09.608Z,20.97
2022-12-13T10:45:38.126Z,21.90
2022-12-13T10:48:07.142Z,14.93
2022-12-13T10:50:37.310Z,16.00
2022-12-13T10:53:05.963Z,17.60
2022-12-13T10:55:35.917Z,20.40
2022-12-13T10:58:09.495Z,14.13
2022-12-13T11:00:41.594Z,17.57
2022-12-13T11:03:13.605Z,18.67
2022-12-13T11:05:44.232Z,18.83
2022-12-13T11:08:21.649Z,17.17
2022-12-13T11:11:00.589Z,15.43
2022-12-13T11:13:36.893Z,15.57
2022-12-13T11:16:14.151Z,18.93
2022-12-13T11:18:42.377Z,14.53
2022-12-13T11:21:11.937Z,20.40
2022-12-13T11:23:45.075Z,14.70
2022-12-13T11:26:25.509Z,16.00
2022-12-13T11:29:14.059Z,16.50
2022-12-13T11:31:52.947Z,21.53
2022-12-13T11:34:34.433Z,17.60
2022-12-13T11:37:15.772Z,17.57
2022-12-13T11:39:49.525Z,15.70
2022-12-13T11:42:27.485Z,16.50
2022-12-13T11:45:03.451Z,21.67
2022-12-13T11:47:41.502Z,13.60
2022-12-13T11:50:33.605Z,14.83
2022-12-13T11:53:20.244Z,9.23
2022-12-13T11:55:53.721Z,18.93
2022-12-13T12:01:17.630Z,20.33
2022-12-13T12:03:50.654Z,10.93
2022-12-13T12:06:23.134Z,11.17
2022-12-13T12:08:57.998Z,17.00
2022-12-13T12:11:33.717Z,10.87
2022-12-13T12:14:09.848Z,14.03
2022-12-13T12:16:42.103Z,18.33
2022-12-13T12:19:14.768Z,13.67
2022-12-13T12:25:04.160Z,11.90
2022-12-13T12:27:39.935Z,15.37
2022-12-13T12:30:12.320Z,14.33
2022-12-13T12:32:46.351Z,14.43
2022-12-13T12:35:47.589Z,14.87
2022-12-13T12:38:41.516Z,14.43
2022-12-13T12:41:33.094Z,14.37
2022-12-13T12:44:12.158Z,16.87
2022-12-13T12:47:09.176Z,13.33
2022-12-13T12:50:04.279Z,11.60
2022-12-13T12:52:43.321Z,14.67
2022-12-13T12:55:18.343Z,9.10
2022-12-13T12:58:01.551Z,15.17
2022-12-13T13:00:34.734Z,12.33
2022-12-13T13:03:18.847Z,13.10
2022-12-13T13:05:55.907Z,16.60
2022-12-13T13:08:33.310Z,13.50
2022-12-13T13:11:02.402Z,12.67
2022-12-13T13:13:47.412Z,15.60
2022-12-13T13:16:34.653Z,12.00
2022-12-13T13:19:03.259Z,8.67
2022-12-13T13:21:49.981Z,8.70
2022-12-13T13:24:26.553Z,17.13
2022-12-13T13:26:57.088Z,10.90
2022-12-13T13:29:43.809Z,12.20
2022-12-13T13:32:29.044Z,9.17
2022-12-13T13:35:48.020Z,9.20
2022-12-13T13:38:55.621Z,15.57
2022-12-13T13:41:56.154Z,6.10
2022-12-13T13:44:56.780Z,11.30
2022-12-13T13:47:39.141Z,3.47
2022-12-13T13:50:42.645Z,9.20
2022-12-13T13:53:50.257Z,8.90
2022-12-13T13:56:50.302Z,12.10
2022-12-13T13:59:51.788Z,11.33
2022-12-13T14:02:53.354Z,6.93
2022-12-13T14:05:54.084Z,13.70
2022-12-13T14:08:34.186Z,14.00
2022-12-13T14:11:22.195Z,5.50
2022-12-13T14:14:26.991Z,9.00
2022-12-13T14:17:37.982Z,6.43
2022-12-13T14:20:45.120Z,5.67
2022-12-13T14:23:27.130Z,8.40
2022-12-13T14:26:18.722Z,11.30
2022-12-13T14:28:55.115Z,13.27
2022-12-13T14:31:26.751Z,5.40
2022-12-13T14:33:56.979Z,6.10
2022-12-13T14:36:32.458Z,7.37
2022-12-13T14:39:02.463Z,6.70
2022-12-13T14:41:31.103Z,6.57
2022-12-13T14:44:17.187Z,13.90
2022-12-13T14:46:53.431Z,6.73
2022-12-13T14:49:23.325Z,13.50
2022-12-13T14:52:01.144Z,8.80
2022-12-13T14:54:32.903Z,8.33
2022-12-13T14:57:02.677Z,7.53
2022-12-13T14:59:33.259Z,7.87
2022-12-13T15:02:03.879Z,17.10
2022-12-13T15:04:34.178Z,6.63
2022-12-13T15:07:10.702Z,11.50
2022-12-13T15:09:40.723Z,9.20
2022-12-13T15:12:24.643Z,12.80
2022-12-13T15:15:01.054Z,10.67
2022-12-13T15:17:32.927Z,11.07
2022-12-13T15:20:01.791Z,7.30
2022-12-13T15:22:31.312Z,9.00
2022-12-13T15:24:59.722Z,9.87
2022-12-13T15:27:28.230Z,14.43
2022-12-13T15:29:56.478Z,7.87
2022-12-13T15:32:24.558Z,11.03
2022-12-13T15:34:52.945Z,16.60
2022-12-13T15:37:30.413Z,13.83
2022-12-13T15:40:02.301Z,9.00
2022-12-13T15:42:33.909Z,14.40
2022-12-13T15:45:05.196Z,11.23
2022-12-13T15:47:33.835Z,6.80
2022-12-13T15:50:03.936Z,17.40
2022-12-13T15:52:36.366Z,11.27
2022-12-13T15:55:28.786Z,10.33
2022-12-13T15:57:58.688Z,9.60
2022-12-13T16:00:30.291Z,9.67
2022-12-13T16:03:08.551Z,10.33
2022-12-13T16:05:40.538Z,14.37
2022-12-13T16:08:20.392Z,10.73
2022-12-13T16:10:51.352Z,18.10
2022-12-13T16:13:26.282Z,7.13
2022-12-13T16:16:00.488Z,8.20
2022-12-13T16:18:45.831Z,11.63
2022-12-13T16:21:14.452Z,11.13
2022-12-13T16:23:48.870Z,15.53
2022-12-13T16:26:24.319Z,14.07
2022-12-13T16:28:52.346Z,11.90
2022-12-13T16:31:24.477Z,10.63
2022-12-13T16:33:53.560Z,10.00
2022-12-13T16:36:21.956Z,14.47
2022-12-13T16:38:51.536Z,9.60
2022-12-13T16:41:22.050Z,8.60
2022-12-13T16:43:56.084Z,10.53
2022-12-13T16:47:13.097Z,9.70
2022-12-13T16:49:21.554Z,10.80
2022-12-13T16:51:50.048Z,8.90
2022-12-13T16:54:19.403Z,9.70
2022-12-13T16:56:49.872Z,11.67
2022-12-13T16:59:20.201Z,9.80
2022-12-13T17:01:48.769Z,11.70
2022-12-13T17:04:21.046Z,12.63
2022-12-13T17:06:50.485Z,7.80
2022-12-13T17:09:18.879Z,13.13
2022-12-13T17:11:48.466Z,15.07
2022-12-13T17:14:16.648Z,13.60
2022-12-13T17:16:45.113Z,12.50
2022-12-13T17:19:15.801Z,22.10
2022-12-13T17:21:44.164Z,12.60
2022-12-13T17:24:12.637Z,12.20
2022-12-13T17:26:41.150Z,12.93
2022-12-13T17:29:25.097Z,17.33
2022-12-13T17:31:53.817Z,13.93
2022-12-13T17:34:22.213Z,10.50
2022-12-13T17:36:50.281Z,12.87
2022-12-13T17:39:18.673Z,14.50
2022-12-13T17:41:54.424Z,25.43
2022-12-13T17:44:25.644Z,15.00
2022-12-13T17:46:54.475Z,11.63
2022-12-13T17:49:23.810Z,14.53
2022-12-13T17:51:54.362Z,12.80
2022-12-13T17:54:23.686Z,9.33
2022-12-13T17:56:52.180Z,13.30
2022-12-13T17:59:20.610Z,13.77
2022-12-13T18:01:50.651Z,11.00
2022-12-13T18:04:19.037Z,12.90
2022-12-13T18:06:47.187Z,13.30
2022-12-13T18:09:15.476Z,13.63
2022-12-13T18:11:43.584Z,10.20
2022-12-13T18:14:11.948Z,11.30
2022-12-13T18:16:41.607Z,17.83
2022-12-13T18:19:16.675Z,15.20
2022-12-13T18:21:44.942Z,14.50
2022-12-13T18:24:13.191Z,23.67
2022-12-13T18:26:41.323Z,11.80
2022-12-13T18:29:09.701Z,12.70
2022-12-13T18:31:37.967Z,16.20
2022-12-13T18:34:06.385Z,18.83
2022-12-13T18:36:44.214Z,22.83
2022-12-13T18:39:13.325Z,19.00
2022-12-13T18:41:41.422Z,14.00
2022-12-13T18:44:11.237Z,17.77
2022-12-13T18:46:43.417Z,15.70
2022-12-13T18:49:14.080Z,15.93
2022-12-13T18:51:43.830Z,12.80
2022-12-13T18:54:12.377Z,25.60
2022-12-13T18:56:41.147Z,16.93
2022-12-13T18:59:09.210Z,24.80
2022-12-13T19:01:37.247Z,21.67
2022-12-13T19:04:11.247Z,15.30
2022-12-13T19:06:40.141Z,17.77
2022-12-13T19:09:10.340Z,14.37
2022-12-13T19:11:38.328Z,13.93
2022-12-13T19:14:06.469Z,16.70
2022-12-13T19:16:36.557Z,15.83
2022-12-13T19:19:07.794Z,12.07
2022-12-13T19:21:35.931Z,12.37
2022-12-13T19:24:06.989Z,8.40
2022-12-13T19:26:39.381Z,12.23
2022-12-13T19:29:08.732Z,9.47
2022-12-13T19:31:46.628Z,13.27
2022-12-13T19:34:15.580Z,12.43
2022-12-13T19:36:48.572Z,11.80
2022-12-13T19:39:16.850Z,12.53
2022-12-13T19:41:46.333Z,15.30
2022-12-13T19:44:14.823Z,12.90
2022-12-13T19:46:43.108Z,13.57
2022-12-13T19:49:12.445Z,10.17
2022-12-13T19:51:40.592Z,13.90
2022-12-13T19:54:10.824Z,9.27
2022-12-13T19:56:38.957Z,8.90
2022-12-13T19:59:08.392Z,10.43
2022-12-13T20:01:36.631Z,17.50
2022-12-13T20:04:05.312Z,13.60
2022-12-13T20:06:33.374Z,14.83
2022-12-13T20:09:01.547Z,11.97
2022-12-13T20:11:29.916Z,9.57
2022-12-13T20:13:57.990Z,10.53
2022-12-13T20:16:28.404Z,14.33
2022-12-13T20:18:57.621Z,13.83
2022-12-13T20:21:26.096Z,10.20
2022-12-13T20:23:54.480Z,9.80
2022-12-13T20:26:25.628Z,13.10
2022-12-13T20:28:54.410Z,17.10
2022-12-13T20:31:24.712Z,15.20
2022-12-13T20:33:57.164Z,7.43
2022-12-13T20:36:27.848Z,5.57
2022-12-13T20:38:56.973Z,14.43
2022-12-13T20:41:26.444Z,15.80
2022-12-13T20:43:55.731Z,8.27
2022-12-13T20:46:24.744Z,8.37
2022-12-13T20:48:53.818Z,8.13
2022-12-13T20:51:25.400Z,9.43
2022-12-13T20:53:54.276Z,12.03
2022-12-13T20:56:24.541Z,10.30
2022-12-13T20:58:52.742Z,7.30
2022-12-13T21:01:22.929Z,13.37
2022-12-13T21:03:53.783Z,9.07
2022-12-13T21:06:23.354Z,13.17
2022-12-13T21:08:54.647Z,11.90
2022-12-13T21:11:27.745Z,13.90
2022-12-13T21:14:06.838Z,9.60
2022-12-13T21:16:39.762Z,11.23
2022-12-13T21:19:10.140Z,8.87
2022-12-13T21:21:39.818Z,6.80
2022-12-13T21:24:08.483Z,10.17
2022-12-13T21:26:36.931Z,13.37
2022-12-13T21:29:10.937Z,14.43
2022-12-13T21:31:40.430Z,18.03
2022-12-13T21:34:20.585Z,13.93
2022-12-13T21:36:59.889Z,9.43
2022-12-13T21:39:31.080Z,12.43
2022-12-13T21:42:00.678Z,12.87
2022-12-13T21:44:28.831Z,13.13
2022-12-13T21:47:13.459Z,13.63
2022-12-13T21:49:42.126Z,12.63
2022-12-13T21:52:19.176Z,7.93
2022-12-13T21:54:47.345Z,12.93
2022-12-13T21:57:32.564Z,14.83
2022-12-13T22:00:00.877Z,13.37
2022-12-13T22:02:30.827Z,11.20
2022-12-13T22:05:06.185Z,11.37
2022-12-13T22:07:38.621Z,10.60
2022-12-13T22:10:07.501Z,11.27
2022-12-13T22:12:37.743Z,12.90
2022-12-13T22:15:07.447Z,12.67
2022-12-13T22:17:38.053Z,11.37
2022-12-13T22:20:08.154Z,10.20
2022-12-13T22:22:39.228Z,10.70
2022-12-13T22:25:08.357Z,13.87
2022-12-13T22:27:36.463Z,9.50
2022-12-13T22:30:05.963Z,13.30
2022-12-13T22:32:34.101Z,12.83
2022-12-13T22:35:02.272Z,9.10
2022-12-13T22:37:30.445Z,9.90
2022-12-13T22:39:59.913Z,14.10
2022-12-13T22:42:27.889Z,17.30
2022-12-13T22:44:56.197Z,12.87
2022-12-13T22:47:24.606Z,12.20
2022-12-13T22:49:52.789Z,8.00
2022-12-13T22:52:21.076Z,12.73
2022-12-13T22:54:49.107Z,15.67
2022-12-13T22:57:18.503Z,10.87
2022-12-13T22:59:46.601Z,8.80
2022-12-13T23:02:14.816Z,11.73
2022-12-13T23:05:10.912Z,11.83
2022-12-13T23:07:38.969Z,15.07
2022-12-13T23:13:57.998Z,13.03
2022-12-13T23:16:28.447Z,11.50
2022-12-13T23:19:16.961Z,14.77
2022-12-13T23:21:48.688Z,9.63
2022-12-13T23:24:17.229Z,10.90
2022-12-13T23:26:45.440Z,14.00
2022-12-13T23:29:17.173Z,10.67
2022-12-13T23:31:48.810Z,15.47
2022-12-13T23:34:17.857Z,15.80
2022-12-13T23:36:50.137Z,9.10
2022-12-13T23:39:18.136Z,11.07
2022-12-13T23:41:46.316Z,20.90
2022-12-13T23:44:21.633Z,10.20
2022-12-13T23:46:52.898Z,5.13
2022-12-13T23:53:05.168Z,7.90
2022-12-13T23:56:36.055Z,10.83
